createdAt,value
2023-05-10T04:00:34.125Z,10.52
2023-05-10T04:01:35.044Z,10.52
2023-05-10T04:02:35.205Z,10.47
2023-05-10T04:03:35.067Z,10.52
2023-05-10T04:04:34.982Z,10.55
2023-05-10T04:05:35.002Z,10.55
2023-05-10T04:06:35.063Z,10.55
2023-05-10T04:07:35.002Z,10.58
2023-05-10T04:08:34.973Z,10.56
2023-05-10T04:09:34.943Z,10.59
2023-05-10T04:10:34.916Z,10.56
2023-05-10T04:11:34.913Z,10.58
2023-05-10T04:12:34.901Z,10.58
2023-05-10T04:13:34.893Z,10.59
2023-05-10T04:14:34.877Z,10.59
2023-05-10T04:15:34.893Z,10.59
2023-05-10T04:16:34.908Z,10.65
2023-05-10T04:17:34.862Z,10.60
2023-05-10T04:18:34.848Z,10.62
2023-05-10T04:19:34.861Z,10.66
2023-05-10T04:20:34.850Z,10.66
2023-05-10T04:21:34.836Z,10.65
2023-05-10T04:22:34.789Z,10.68
2023-05-10T04:23:34.777Z,10.65
2023-05-10T04:24:34.768Z,10.71
2023-05-10T04:25:34.757Z,10.73
2023-05-10T04:26:34.754Z,10.73
2023-05-10T04:27:34.806Z,10.73
2023-05-10T04:28:34.745Z,10.74
2023-05-10T04:29:34.746Z,10.76
2023-05-10T04:30:34.735Z,10.76
2023-05-10T04:31:34.703Z,10.77
2023-05-10T04:32:34.830Z,10.78
2023-05-10T04:33:34.674Z,10.80
2023-05-10T04:34:34.655Z,10.86
2023-05-10T04:35:34.654Z,10.88
2023-05-10T04:36:34.633Z,10.91
2023-05-10T04:37:34.641Z,10.91
2023-05-10T04:38:34.605Z,10.96
2023-05-10T04:39:34.598Z,10.94
2023-05-10T04:40:34.604Z,10.96
2023-05-10T04:41:34.597Z,11.01
2023-05-10T04:42:34.581Z,11.01
2023-05-10T04:43:34.583Z,11.01
2023-05-10T04:44:34.554Z,11.06
2023-05-10T04:45:34.578Z,11.09
2023-05-10T04:46:34.618Z,11.13
2023-05-10T04:47:34.560Z,11.16
2023-05-10T04:48:34.526Z,11.21
2023-05-10T04:49:34.496Z,11.25
2023-05-10T04:50:34.488Z,11.27
2023-05-10T04:51:34.482Z,11.28
2023-05-10T04:52:34.844Z,11.32
2023-05-10T04:53:34.460Z,11.35
2023-05-10T04:54:34.466Z,11.35
2023-05-10T04:55:34.430Z,11.36
2023-05-10T04:56:34.475Z,11.44
2023-05-10T04:57:34.422Z,11.49
2023-05-10T04:58:34.410Z,11.50
2023-05-10T04:59:34.426Z,11.57
2023-05-10T05:00:34.362Z,11.59
2023-05-10T05:01:34.420Z,11.67
2023-05-10T05:02:34.403Z,11.65
2023-05-10T05:03:34.441Z,11.65
2023-05-10T05:04:34.339Z,11.71
2023-05-10T05:05:34.347Z,11.74
2023-05-10T05:06:34.300Z,11.77
2023-05-10T05:07:34.291Z,11.78
2023-05-10T05:08:34.282Z,11.80
2023-05-10T05:09:34.286Z,11.87
2023-05-10T05:10:34.274Z,11.93
2023-05-10T05:11:34.261Z,11.94
2023-05-10T05:12:34.249Z,11.99
2023-05-10T05:13:34.233Z,12.01
2023-05-10T05:14:34.222Z,12.05
2023-05-10T05:15:34.232Z,12.08
2023-05-10T05:16:34.234Z,12.05
2023-05-10T05:17:34.220Z,12.15
2023-05-10T05:18:34.177Z,12.11
2023-05-10T05:19:34.180Z,12.15
2023-05-10T05:20:34.196Z,12.15
2023-05-10T05:21:34.159Z,12.19
2023-05-10T05:22:34.153Z,12.21
2023-05-10T05:23:34.127Z,12.23
2023-05-10T05:24:34.139Z,12.27
2023-05-10T05:25:34.137Z,12.31
2023-05-10T05:26:34.123Z,12.27
2023-05-10T05:27:34.099Z,12.34
2023-05-10T05:28:34.154Z,12.37
2023-05-10T05:29:34.128Z,12.39
2023-05-10T05:30:34.073Z,12.42
2023-05-10T05:31:34.113Z,12.39
2023-05-10T05:32:34.111Z,12.39
2023-05-10T05:33:34.020Z,12.44
2023-05-10T05:34:34.963Z,12.44
2023-05-10T05:35:34.049Z,12.46
2023-05-10T05:36:35.345Z,12.54
2023-05-10T05:37:33.976Z,12.52
2023-05-10T05:38:33.961Z,12.51
2023-05-10T05:39:33.994Z,12.56
2023-05-10T05:40:34.118Z,12.64
2023-05-10T05:41:33.922Z,12.64
2023-05-10T05:42:33.924Z,12.63
2023-05-10T05:43:36.705Z,12.62
2023-05-10T05:44:33.904Z,12.69
2023-05-10T05:45:33.979Z,12.75
2023-05-10T05:46:34.612Z,12.78
2023-05-10T05:47:34.057Z,12.78
2023-05-10T05:48:33.870Z,12.82
2023-05-10T05:49:34.109Z,12.85
2023-05-10T05:50:33.858Z,12.89
2023-05-10T05:51:33.827Z,12.87
2023-05-10T05:52:33.836Z,12.89
2023-05-10T05:53:33.794Z,12.96
2023-05-10T05:54:33.808Z,13.00
2023-05-10T05:55:33.799Z,13.04
2023-05-10T05:56:33.764Z,13.09
2023-05-10T05:57:33.771Z,13.04
2023-05-10T05:58:33.743Z,13.06
2023-05-10T05:59:33.750Z,13.14
2023-05-10T06:00:33.723Z,13.15
2023-05-10T06:01:33.716Z,13.22
2023-05-10T06:02:33.779Z,13.25
2023-05-10T06:03:33.758Z,13.24
2023-05-10T06:04:33.708Z,13.27
2023-05-10T06:05:33.677Z,13.32
2023-05-10T06:06:33.708Z,13.40
2023-05-10T06:07:33.762Z,13.38
2023-05-10T06:08:33.953Z,13.43
2023-05-10T06:09:33.906Z,13.54
2023-05-10T06:10:33.629Z,13.54
2023-05-10T06:11:34.031Z,13.61
2023-05-10T06:12:33.597Z,13.67
2023-05-10T06:13:33.840Z,13.74
2023-05-10T06:14:33.594Z,13.83
2023-05-10T06:15:33.606Z,13.89
2023-05-10T06:16:33.586Z,13.91
2023-05-10T06:17:33.596Z,13.88
2023-05-10T06:18:33.533Z,13.88
2023-05-10T06:19:33.514Z,13.96
2023-05-10T06:20:33.512Z,14.01
2023-05-10T06:21:33.489Z,14.10
2023-05-10T06:22:33.488Z,14.09
2023-05-10T06:23:33.477Z,14.12
2023-05-10T06:24:33.496Z,14.20
2023-05-10T06:25:33.442Z,14.24
2023-05-10T06:26:33.436Z,14.35
2023-05-10T06:27:33.428Z,14.42
2023-05-10T06:28:33.423Z,14.53
2023-05-10T06:29:33.419Z,14.67
2023-05-10T06:30:33.412Z,14.90
2023-05-10T06:31:33.415Z,14.95
2023-05-10T06:32:33.401Z,14.94
2023-05-10T06:33:33.365Z,15.02
2023-05-10T06:34:33.362Z,14.98
2023-05-10T06:35:33.334Z,15.05
2023-05-10T06:36:33.350Z,15.08
2023-05-10T06:37:33.314Z,15.08
2023-05-10T06:38:33.307Z,15.09
2023-05-10T06:39:33.290Z,15.19
2023-05-10T06:40:33.288Z,15.36
2023-05-10T06:41:33.309Z,15.60
2023-05-10T06:42:33.290Z,15.86
2023-05-10T06:43:33.285Z,15.99
2023-05-10T06:44:33.252Z,15.78
2023-05-10T06:45:33.225Z,15.52
2023-05-10T06:46:33.260Z,15.49
2023-05-10T06:47:33.278Z,15.76
2023-05-10T06:48:33.217Z,16.14
2023-05-10T06:49:33.210Z,16.37
2023-05-10T06:50:33.200Z,16.41
2023-05-10T06:51:33.162Z,16.52
2023-05-10T06:52:33.170Z,16.67
2023-05-10T06:53:33.557Z,16.62
2023-05-10T06:54:33.140Z,16.27
2023-05-10T06:55:33.137Z,16.25
2023-05-10T06:56:33.117Z,16.22
2023-05-10T06:57:33.090Z,16.09
2023-05-10T06:58:33.118Z,16.18
2023-05-10T06:59:33.133Z,16.33
2023-05-10T07:00:33.097Z,16.35
2023-05-10T07:01:33.079Z,16.25
2023-05-10T07:02:33.163Z,16.18
2023-05-10T07:03:33.047Z,16.15
2023-05-10T07:04:33.073Z,15.89
2023-05-10T07:05:33.152Z,15.63
2023-05-10T07:06:33.934Z,15.94
2023-05-10T07:07:32.985Z,16.30
2023-05-10T07:08:33.021Z,16.50
2023-05-10T07:09:33.147Z,16.30
2023-05-10T07:10:32.968Z,16.55
2023-05-10T07:11:32.970Z,16.81
2023-05-10T07:12:32.971Z,16.65
2023-05-10T07:13:33.071Z,16.73
2023-05-10T07:14:32.993Z,16.99
2023-05-10T07:15:32.922Z,17.26
2023-05-10T07:16:33.001Z,17.54
2023-05-10T07:17:32.991Z,17.48
2023-05-10T07:18:32.968Z,17.54
2023-05-10T07:19:32.876Z,17.18
2023-05-10T07:20:32.882Z,16.78
2023-05-10T07:21:32.892Z,16.78
2023-05-10T07:22:32.825Z,16.73
2023-05-10T07:23:32.851Z,16.89
2023-05-10T07:24:32.853Z,17.08
2023-05-10T07:25:32.799Z,16.98
2023-05-10T07:26:32.790Z,16.78
2023-05-10T07:27:32.780Z,16.81
2023-05-10T07:28:32.778Z,16.77
2023-05-10T07:29:32.762Z,17.04
2023-05-10T07:30:32.853Z,17.35
2023-05-10T07:31:32.821Z,17.66
2023-05-10T07:32:32.886Z,18.00
2023-05-10T07:33:32.785Z,18.17
2023-05-10T07:34:32.711Z,18.19
2023-05-10T07:35:32.690Z,18.09
2023-05-10T07:36:32.682Z,17.97
2023-05-10T07:37:32.676Z,17.78
2023-05-10T07:38:32.685Z,17.17
2023-05-10T07:39:32.644Z,17.07
2023-05-10T07:40:32.648Z,17.15
2023-05-10T07:41:33.913Z,17.28
2023-05-10T07:42:32.663Z,17.38
2023-05-10T07:43:32.610Z,17.59
2023-05-10T07:44:32.605Z,17.88
2023-05-10T07:45:32.639Z,17.99
2023-05-10T07:46:32.561Z,18.19
2023-05-10T07:47:32.567Z,18.27
2023-05-10T07:48:32.543Z,17.89
2023-05-10T07:49:32.536Z,17.97
2023-05-10T07:50:32.527Z,18.12
2023-05-10T07:51:32.514Z,18.04
2023-05-10T07:52:32.497Z,17.88
2023-05-10T07:53:32.531Z,17.38
2023-05-10T07:54:32.486Z,17.10
2023-05-10T07:55:32.477Z,17.20
2023-05-10T07:56:32.454Z,17.44
2023-05-10T07:57:32.450Z,17.30
2023-05-10T07:58:32.431Z,16.99
2023-05-10T07:59:32.424Z,16.93
2023-05-10T08:00:32.437Z,17.26
2023-05-10T08:01:32.395Z,17.51
2023-05-10T08:02:32.499Z,17.73
2023-05-10T08:03:32.492Z,17.87
2023-05-10T08:04:32.365Z,17.89
2023-05-10T08:05:34.634Z,18.07
2023-05-10T08:06:32.339Z,18.07
2023-05-10T08:07:32.336Z,17.99
2023-05-10T08:08:32.360Z,17.91
2023-05-10T08:09:32.326Z,18.09
2023-05-10T08:10:32.302Z,18.09
2023-05-10T08:11:34.358Z,18.07
2023-05-10T08:12:32.296Z,18.04
2023-05-10T08:13:32.274Z,18.13
2023-05-10T08:14:32.244Z,18.27
2023-05-10T08:15:32.249Z,18.39
2023-05-10T08:16:32.381Z,18.25
2023-05-10T08:17:32.267Z,18.07
2023-05-10T08:18:32.221Z,18.06
2023-05-10T08:19:32.201Z,18.02
2023-05-10T08:20:32.225Z,17.89
2023-05-10T08:21:32.213Z,17.54
2023-05-10T08:22:32.172Z,17.33
2023-05-10T08:23:32.155Z,17.29
2023-05-10T08:24:32.143Z,17.33
2023-05-10T08:25:32.126Z,17.35
2023-05-10T08:26:32.130Z,17.32
2023-05-10T08:27:32.116Z,17.48
2023-05-10T08:28:32.098Z,17.73
2023-05-10T08:29:38.657Z,17.91
2023-05-10T08:30:32.092Z,18.07
2023-05-10T08:31:32.117Z,18.04
2023-05-10T08:32:32.066Z,17.84
2023-05-10T08:33:32.053Z,17.71
2023-05-10T08:34:32.031Z,17.63
2023-05-10T08:35:32.045Z,17.69
2023-05-10T08:36:32.042Z,17.69
2023-05-10T08:37:32.011Z,17.81
2023-05-10T08:38:32.010Z,17.92
2023-05-10T08:39:32.016Z,17.94
2023-05-10T08:40:32.049Z,18.03
2023-05-10T08:41:31.966Z,18.17
2023-05-10T08:42:31.982Z,18.24
2023-05-10T08:43:31.942Z,18.37
2023-05-10T08:44:31.919Z,18.34
2023-05-10T08:45:31.907Z,18.22
2023-05-10T08:46:31.938Z,18.19
2023-05-10T08:47:31.947Z,18.28
2023-05-10T08:48:31.903Z,18.46
2023-05-10T08:49:31.881Z,18.47
2023-05-10T08:50:31.872Z,18.28
2023-05-10T08:51:31.855Z,18.19
2023-05-10T08:52:31.860Z,18.29
2023-05-10T08:53:31.859Z,18.50
2023-05-10T08:54:31.831Z,18.59
2023-05-10T08:55:31.806Z,18.70
2023-05-10T08:56:31.878Z,18.90
2023-05-10T08:57:31.788Z,18.90
2023-05-10T08:58:31.994Z,18.86
2023-05-10T08:59:31.951Z,18.76
2023-05-10T09:00:31.785Z,18.84
2023-05-10T09:01:31.958Z,18.98
2023-05-10T09:02:31.742Z,18.82
2023-05-10T09:03:31.735Z,18.92
2023-05-10T09:04:31.873Z,18.82
2023-05-10T09:05:31.741Z,18.77
2023-05-10T09:06:31.692Z,18.87
2023-05-10T09:07:31.701Z,18.86
2023-05-10T09:08:31.712Z,18.80
2023-05-10T09:09:31.658Z,18.87
2023-05-10T09:10:31.633Z,18.82
2023-05-10T09:11:31.727Z,18.72
2023-05-10T09:12:31.621Z,18.83
2023-05-10T09:13:31.929Z,18.99
2023-05-10T09:14:31.637Z,19.10
2023-05-10T09:15:31.596Z,19.10
2023-05-10T09:16:31.646Z,18.97
2023-05-10T09:17:31.593Z,19.10
2023-05-10T09:18:31.634Z,19.13
2023-05-10T09:19:31.683Z,19.24
2023-05-10T09:20:31.568Z,19.20
2023-05-10T09:21:31.517Z,19.29
2023-05-10T09:22:31.521Z,19.46
2023-05-10T09:23:31.517Z,19.65
2023-05-10T09:24:31.490Z,19.46
2023-05-10T09:25:31.473Z,19.39
2023-05-10T09:26:31.461Z,19.31
2023-05-10T09:27:31.466Z,19.38
2023-05-10T09:28:31.438Z,19.32
2023-05-10T09:29:31.441Z,19.47
2023-05-10T09:30:31.469Z,19.29
2023-05-10T09:31:31.464Z,19.17
2023-05-10T09:32:31.413Z,19.05
2023-05-10T09:33:31.403Z,19.10
2023-05-10T09:34:31.460Z,19.06
2023-05-10T09:35:31.399Z,19.14
2023-05-10T09:36:31.352Z,19.33
2023-05-10T09:37:31.350Z,19.53
2023-05-10T09:38:31.333Z,19.47
2023-05-10T09:39:31.390Z,19.68
2023-05-10T09:40:31.320Z,20.00
2023-05-10T09:41:31.296Z,20.09
2023-05-10T09:42:31.298Z,20.18
2023-05-10T09:43:31.292Z,20.15
2023-05-10T09:44:31.284Z,20.23
2023-05-10T09:45:31.268Z,20.06
2023-05-10T09:46:31.358Z,19.88
2023-05-10T09:47:31.362Z,19.94
2023-05-10T09:48:31.231Z,19.94
2023-05-10T09:49:31.224Z,20.05
2023-05-10T09:50:31.201Z,19.97
2023-05-10T09:51:31.216Z,20.12
2023-05-10T09:52:31.216Z,20.09
2023-05-10T09:53:31.194Z,19.95
2023-05-10T09:54:31.195Z,20.13
2023-05-10T09:55:31.164Z,20.28
2023-05-10T09:56:31.148Z,20.38
2023-05-10T09:57:32.364Z,20.42
2023-05-10T09:58:31.155Z,20.49
2023-05-10T09:59:31.480Z,20.51
2023-05-10T10:00:31.107Z,20.50
2023-05-10T10:01:31.194Z,20.56
2023-05-10T10:02:31.153Z,20.61
2023-05-10T10:03:31.086Z,20.47
2023-05-10T10:04:31.185Z,20.38
2023-05-10T10:05:31.087Z,20.30
2023-05-10T10:06:31.031Z,20.24
2023-05-10T10:07:31.058Z,20.12
2023-05-10T10:08:31.026Z,20.02
2023-05-10T10:09:31.069Z,19.94
2023-05-10T10:10:31.007Z,19.95
2023-05-10T10:11:31.001Z,20.09
2023-05-10T10:12:30.991Z,20.24
2023-05-10T10:13:31.011Z,20.38
2023-05-10T10:14:30.994Z,20.58
2023-05-10T10:15:30.943Z,20.18
2023-05-10T10:16:31.030Z,19.95
2023-05-10T10:17:30.937Z,20.06
2023-05-10T10:18:30.933Z,20.21
2023-05-10T10:19:30.902Z,20.53
2023-05-10T10:20:30.891Z,20.74
2023-05-10T10:21:30.876Z,20.66
2023-05-10T10:22:30.881Z,20.84
2023-05-10T10:23:30.894Z,20.84
2023-05-10T10:24:30.871Z,20.86
2023-05-10T10:25:30.880Z,20.95
2023-05-10T10:26:30.843Z,21.08
2023-05-10T10:27:30.840Z,21.27
2023-05-10T10:28:30.816Z,21.39
2023-05-10T10:29:30.782Z,21.46
2023-05-10T10:30:30.796Z,21.38
2023-05-10T10:31:30.886Z,21.23
2023-05-10T10:32:30.822Z,20.91
2023-05-10T10:33:30.755Z,20.80
2023-05-10T10:34:30.774Z,20.99
2023-05-10T10:35:30.729Z,21.17
2023-05-10T10:36:30.747Z,21.39
2023-05-10T10:37:30.778Z,21.61
2023-05-10T10:38:30.702Z,21.76
2023-05-10T10:39:30.711Z,21.59
2023-05-10T10:40:33.605Z,21.38
2023-05-10T10:41:30.682Z,21.36
2023-05-10T10:42:30.689Z,21.41
2023-05-10T10:43:30.670Z,21.32
2023-05-10T10:44:30.648Z,21.02
2023-05-10T10:45:30.659Z,20.98
2023-05-10T10:46:30.641Z,21.23
2023-05-10T10:47:30.662Z,21.48
2023-05-10T10:48:30.598Z,21.63
2023-05-10T10:49:30.580Z,21.79
2023-05-10T10:50:30.591Z,21.88
2023-05-10T10:51:30.608Z,21.98
2023-05-10T10:52:30.578Z,22.23
2023-05-10T10:53:30.632Z,22.06
2023-05-10T10:54:30.519Z,22.19
2023-05-10T10:55:30.539Z,22.29
2023-05-10T10:56:30.508Z,22.34
2023-05-10T10:57:30.510Z,22.35
2023-05-10T10:58:30.496Z,22.01
2023-05-10T10:59:30.467Z,21.90
2023-05-10T11:00:30.461Z,21.79
2023-05-10T11:01:30.543Z,21.79
2023-05-10T11:02:31.327Z,21.76
2023-05-10T11:03:30.446Z,21.76
2023-05-10T11:04:30.468Z,21.91
2023-05-10T11:05:30.409Z,22.12
2023-05-10T11:06:30.446Z,21.95
2023-05-10T11:07:30.415Z,21.81
2023-05-10T11:08:30.419Z,21.71
2023-05-10T11:09:30.350Z,21.91
2023-05-10T11:10:30.340Z,22.29
2023-05-10T11:11:30.349Z,22.59
2023-05-10T11:12:30.324Z,22.71
2023-05-10T11:13:30.311Z,22.75
2023-05-10T11:14:30.318Z,22.50
2023-05-10T11:15:30.303Z,22.14
2023-05-10T11:16:30.332Z,22.06
2023-05-10T11:17:30.476Z,22.01
2023-05-10T11:18:30.326Z,21.67
2023-05-10T11:19:30.268Z,21.76
2023-05-10T11:20:30.238Z,21.99
2023-05-10T11:21:30.285Z,22.25
2023-05-10T11:22:30.248Z,22.25
2023-05-10T11:23:30.220Z,21.85
2023-05-10T11:24:30.180Z,21.60
2023-05-10T11:25:30.190Z,21.59
2023-05-10T11:26:30.194Z,21.83
2023-05-10T11:27:30.207Z,22.09
2023-05-10T11:28:30.190Z,22.20
2023-05-10T11:29:30.142Z,22.50
2023-05-10T11:30:30.180Z,22.52
2023-05-10T11:31:30.539Z,22.68
2023-05-10T11:32:30.162Z,22.84
2023-05-10T11:33:30.106Z,22.89
2023-05-10T11:34:30.171Z,22.64
2023-05-10T11:35:30.084Z,22.56
2023-05-10T11:36:30.144Z,22.71
2023-05-10T11:37:30.084Z,22.71
2023-05-10T11:38:30.094Z,22.59
2023-05-10T11:39:30.037Z,22.59
2023-05-10T11:40:30.088Z,22.72
2023-05-10T11:41:30.028Z,22.84
2023-05-10T11:42:30.028Z,23.05
2023-05-10T11:43:30.315Z,23.20
2023-05-10T11:44:29.985Z,23.42
2023-05-10T11:45:30.027Z,23.47
2023-05-10T11:46:30.024Z,23.08
2023-05-10T11:47:29.985Z,22.71
2023-05-10T11:48:29.945Z,22.92
2023-05-10T11:49:29.968Z,23.26
2023-05-10T11:50:30.061Z,23.57
2023-05-10T11:51:29.941Z,23.83
2023-05-10T11:52:30.049Z,23.89
2023-05-10T11:53:29.915Z,23.85
2023-05-10T11:54:29.897Z,23.58
2023-05-10T11:55:29.866Z,23.79
2023-05-10T11:56:29.845Z,24.14
2023-05-10T11:57:30.002Z,23.98
2023-05-10T11:58:29.839Z,23.79
2023-05-10T11:59:29.820Z,23.98
2023-05-10T12:00:29.848Z,24.19
2023-05-10T12:01:29.784Z,24.35
2023-05-10T12:02:29.862Z,23.53
2023-05-10T12:03:30.036Z,23.46
2023-05-10T12:04:29.800Z,23.50
2023-05-10T12:05:29.856Z,23.58
2023-05-10T12:06:29.846Z,23.68
2023-05-10T12:07:29.774Z,23.52
2023-05-10T12:08:29.764Z,23.26
2023-05-10T12:09:42.579Z,23.23
2023-05-10T12:10:29.707Z,23.79
2023-05-10T12:11:29.715Z,24.45
2023-05-10T12:12:29.688Z,24.44
2023-05-10T12:13:29.723Z,24.42
2023-05-10T12:14:29.848Z,24.08
2023-05-10T12:15:29.730Z,23.90
2023-05-10T12:16:29.724Z,23.68
2023-05-10T12:17:29.700Z,24.04
2023-05-10T12:18:29.669Z,24.32
2023-05-10T12:19:29.608Z,24.24
2023-05-10T12:20:29.592Z,24.19
2023-05-10T12:21:29.577Z,23.92
2023-05-10T12:22:29.584Z,23.86
2023-05-10T12:23:29.570Z,23.70
2023-05-10T12:24:29.538Z,23.79
2023-05-10T12:25:29.662Z,24.20
2023-05-10T12:26:29.553Z,24.19
2023-05-10T12:27:29.532Z,24.26
2023-05-10T12:28:29.532Z,23.97
2023-05-10T12:29:29.491Z,24.37
2023-05-10T12:30:29.514Z,24.64
2023-05-10T12:31:29.581Z,25.25
2023-05-10T12:32:29.523Z,24.91
2023-05-10T12:33:29.460Z,24.34
2023-05-10T12:34:29.504Z,24.59
2023-05-10T12:35:29.432Z,24.71
2023-05-10T12:36:29.440Z,25.05
2023-05-10T12:37:29.473Z,25.64
2023-05-10T12:38:29.422Z,25.90
2023-05-10T12:39:29.400Z,25.28
2023-05-10T12:40:29.412Z,25.20
2023-05-10T12:41:29.373Z,25.06
2023-05-10T12:42:29.394Z,24.97
2023-05-10T12:43:29.374Z,24.61
2023-05-10T12:44:29.350Z,24.94
2023-05-10T12:45:29.358Z,25.30
2023-05-10T12:46:29.430Z,25.97
2023-05-10T12:47:29.333Z,26.17
2023-05-10T12:48:29.383Z,26.20
2023-05-10T12:49:29.346Z,25.82
2023-05-10T12:50:29.296Z,25.44
2023-05-10T12:51:29.289Z,25.79
2023-05-10T12:52:29.272Z,25.86
2023-05-10T12:53:29.250Z,25.77
2023-05-10T12:54:29.234Z,26.06
2023-05-10T12:55:29.260Z,26.02
2023-05-10T12:56:29.303Z,25.83
2023-05-10T12:57:29.232Z,25.44
2023-05-10T12:58:35.506Z,25.00
2023-05-10T12:59:29.191Z,24.44
2023-05-10T13:00:29.193Z,25.07
2023-05-10T13:01:29.237Z,25.16
2023-05-10T13:02:29.274Z,25.53
2023-05-10T13:03:29.163Z,24.94
2023-05-10T13:04:29.173Z,25.00
2023-05-10T13:05:29.196Z,25.46
2023-05-10T13:06:29.169Z,25.46
2023-05-10T13:07:29.115Z,25.75
2023-05-10T13:08:29.113Z,26.54
2023-05-10T13:09:29.097Z,26.91
2023-05-10T13:10:29.167Z,26.29
2023-05-10T13:11:29.096Z,25.47
2023-05-10T13:12:29.053Z,25.27
2023-05-10T13:13:29.162Z,25.47
2023-05-10T13:14:29.066Z,25.75
2023-05-10T13:15:29.062Z,25.24
2023-05-10T13:16:29.088Z,25.79
2023-05-10T13:17:29.036Z,26.11
2023-05-10T13:18:29.074Z,25.68
2023-05-10T13:19:29.011Z,25.53
2023-05-10T13:20:29.089Z,26.18
2023-05-10T13:21:28.987Z,26.55
2023-05-10T13:22:39.900Z,26.37
2023-05-10T13:23:28.978Z,26.49
2023-05-10T13:24:28.954Z,26.11
2023-05-10T13:25:28.949Z,26.12
2023-05-10T13:26:28.934Z,25.71
2023-05-10T13:27:28.970Z,25.91
2023-05-10T13:28:28.982Z,26.20
2023-05-10T13:29:28.929Z,25.30
2023-05-10T13:30:28.855Z,25.01
2023-05-10T13:31:28.971Z,25.57
2023-05-10T13:32:28.898Z,25.79
2023-05-10T13:33:28.855Z,25.82
2023-05-10T13:34:28.859Z,26.06
2023-05-10T13:35:28.914Z,26.67
2023-05-10T13:36:28.817Z,27.10
2023-05-10T13:37:28.843Z,27.19
2023-05-10T13:38:28.791Z,27.04
2023-05-10T13:39:28.815Z,26.72
2023-05-10T13:40:28.758Z,26.50
2023-05-10T13:41:28.786Z,26.64
2023-05-10T13:42:28.757Z,27.01
2023-05-10T13:43:28.750Z,27.14
2023-05-10T13:44:28.859Z,25.75
2023-05-10T13:45:28.755Z,25.89
2023-05-10T13:46:28.902Z,25.57
2023-05-10T13:47:28.816Z,24.13
2023-05-10T13:48:28.734Z,23.76
2023-05-10T13:49:28.685Z,24.01
2023-05-10T13:50:28.680Z,24.68
2023-05-10T13:51:28.740Z,25.15
2023-05-10T13:52:28.657Z,25.74
2023-05-10T13:53:28.663Z,26.31
2023-05-10T13:54:28.629Z,27.04
2023-05-10T13:55:28.659Z,27.46
2023-05-10T13:56:28.632Z,27.92
2023-05-10T13:57:28.637Z,28.32
2023-05-10T13:58:28.588Z,28.78
2023-05-10T13:59:28.584Z,29.07
2023-05-10T14:00:28.642Z,29.22
2023-05-10T14:01:28.748Z,28.36
2023-05-10T14:02:28.676Z,27.96
2023-05-10T14:03:28.710Z,27.19
2023-05-10T14:04:28.542Z,27.66
2023-05-10T14:05:28.864Z,28.32
2023-05-10T14:06:28.957Z,27.61
2023-05-10T14:07:28.513Z,27.89
2023-05-10T14:08:28.515Z,27.94
2023-05-10T14:09:28.506Z,27.76
2023-05-10T14:10:28.480Z,27.84
2023-05-10T14:11:28.515Z,27.54
2023-05-10T14:12:28.790Z,27.46
2023-05-10T14:13:28.470Z,27.85
2023-05-10T14:14:28.460Z,27.66
2023-05-10T14:15:29.545Z,27.77
2023-05-10T14:16:28.548Z,26.32
2023-05-10T14:17:28.588Z,24.83
2023-05-10T14:18:28.518Z,24.13
2023-05-10T14:19:28.434Z,23.71
2023-05-10T14:20:28.403Z,23.43
2023-05-10T14:21:28.372Z,23.22
2023-05-10T14:22:28.384Z,24.38
2023-05-10T14:23:28.360Z,25.71
2023-05-10T14:24:28.365Z,26.65
2023-05-10T14:25:28.350Z,26.69
2023-05-10T14:26:28.308Z,26.39
2023-05-10T14:27:28.312Z,25.37
2023-05-10T14:28:28.372Z,25.57
2023-05-10T14:29:28.321Z,26.81
2023-05-10T14:30:28.297Z,27.86
2023-05-10T14:31:28.307Z,28.47
2023-05-10T14:32:28.384Z,29.23
2023-05-10T14:33:28.271Z,29.53
2023-05-10T14:34:28.356Z,29.86
2023-05-10T14:35:28.211Z,29.18
2023-05-10T14:36:28.246Z,28.13
2023-05-10T14:37:28.211Z,27.62
2023-05-10T14:38:28.189Z,28.10
2023-05-10T14:39:28.175Z,28.65
2023-05-10T14:40:28.193Z,29.06
2023-05-10T14:41:28.180Z,27.48
2023-05-10T14:42:28.256Z,25.54
2023-05-10T14:43:28.166Z,25.12
2023-05-10T14:44:28.152Z,24.94
2023-05-10T14:45:28.174Z,25.30
2023-05-10T14:46:28.178Z,24.67
2023-05-10T14:47:28.141Z,24.41
2023-05-10T14:48:28.086Z,24.12
2023-05-10T14:49:28.091Z,24.07
2023-05-10T14:50:36.483Z,24.24
2023-05-10T14:51:28.100Z,25.00
2023-05-10T14:52:28.044Z,25.69
2023-05-10T14:53:28.029Z,26.46
2023-05-10T14:54:28.043Z,27.24
2023-05-10T14:55:28.015Z,28.09
2023-05-10T14:56:28.025Z,28.65
2023-05-10T14:57:28.011Z,28.81
2023-05-10T14:58:27.993Z,26.89
2023-05-10T14:59:28.001Z,26.20
2023-05-10T15:00:27.998Z,26.36
2023-05-10T15:01:27.988Z,26.69
2023-05-10T15:02:27.968Z,27.04
2023-05-10T15:03:27.991Z,27.66
2023-05-10T15:04:28.849Z,27.62
2023-05-10T15:05:27.936Z,27.80
2023-05-10T15:06:27.951Z,28.09
2023-05-10T15:07:27.892Z,28.28
2023-05-10T15:08:27.927Z,28.75
2023-05-10T15:09:27.858Z,28.82
2023-05-10T15:10:27.864Z,29.01
2023-05-10T15:11:27.949Z,28.69
2023-05-10T15:12:27.860Z,28.65
2023-05-10T15:13:27.898Z,28.35
2023-05-10T15:14:27.843Z,28.54
2023-05-10T15:15:27.818Z,28.40
2023-05-10T15:16:27.884Z,26.22
2023-05-10T15:17:27.856Z,25.93
2023-05-10T15:18:27.816Z,26.25
2023-05-10T15:19:27.775Z,25.24
2023-05-10T15:20:27.791Z,24.83
2023-05-10T15:21:27.738Z,24.76
2023-05-10T15:22:27.758Z,24.77
2023-05-10T15:23:27.889Z,24.57
2023-05-10T15:24:27.718Z,24.54
2023-05-10T15:25:27.742Z,24.49
2023-05-10T15:26:27.698Z,24.38
2023-05-10T15:27:27.683Z,24.56
2023-05-10T15:28:27.710Z,24.53
2023-05-10T15:29:27.676Z,24.56
2023-05-10T15:30:27.664Z,24.88
2023-05-10T15:31:27.704Z,25.13
2023-05-10T15:32:27.692Z,25.54
2023-05-10T15:33:27.744Z,25.68
2023-05-10T15:34:29.166Z,25.79
2023-05-10T15:35:27.602Z,25.77
2023-05-10T15:36:27.728Z,25.06
2023-05-10T15:37:27.576Z,25.43
2023-05-10T15:38:27.589Z,25.84
2023-05-10T15:39:27.564Z,25.09
2023-05-10T15:40:27.567Z,25.32
2023-05-10T15:41:27.563Z,25.44
2023-05-10T15:42:27.538Z,25.56
2023-05-10T15:43:27.507Z,25.59
2023-05-10T15:44:27.528Z,25.69
2023-05-10T15:45:27.500Z,25.39
2023-05-10T15:46:27.512Z,24.83
2023-05-10T15:47:27.554Z,24.57
2023-05-10T15:48:27.478Z,24.32
2023-05-10T15:49:27.466Z,24.14
2023-05-10T15:50:27.476Z,24.05
2023-05-10T15:51:27.455Z,24.39
2023-05-10T15:52:27.467Z,25.17
2023-05-10T15:53:27.414Z,24.75
2023-05-10T15:54:27.435Z,24.23
2023-05-10T15:55:27.418Z,23.90
2023-05-10T15:56:27.382Z,23.95
2023-05-10T15:57:27.380Z,23.77
2023-05-10T15:58:27.409Z,23.49
2023-05-10T15:59:27.357Z,23.42
2023-05-10T16:00:27.365Z,23.26
2023-05-10T16:01:27.471Z,23.19
2023-05-10T16:02:27.402Z,22.93
2023-05-10T16:03:27.342Z,22.68
2023-05-10T16:04:27.315Z,22.60
2023-05-10T16:05:27.322Z,22.54
2023-05-10T16:06:27.322Z,22.62
2023-05-10T16:07:27.272Z,22.69
2023-05-10T16:08:27.262Z,22.60
2023-05-10T16:09:27.249Z,22.52
2023-05-10T16:10:27.266Z,22.41
2023-05-10T16:11:27.258Z,22.29
2023-05-10T16:12:27.232Z,22.25
2023-05-10T16:13:27.216Z,22.17
2023-05-10T16:14:27.213Z,22.22
2023-05-10T16:15:27.241Z,22.01
2023-05-10T16:16:27.248Z,21.88
2023-05-10T16:17:27.243Z,21.88
2023-05-10T16:18:27.298Z,21.91
2023-05-10T16:19:29.108Z,21.95
2023-05-10T16:20:27.153Z,21.97
2023-05-10T16:21:27.132Z,22.04
2023-05-10T16:22:27.112Z,22.53
2023-05-10T16:23:27.104Z,22.97
2023-05-10T16:24:28.608Z,23.43
2023-05-10T16:25:27.134Z,23.65
2023-05-10T16:26:27.098Z,23.70
2023-05-10T16:27:27.071Z,23.85
2023-05-10T16:28:27.560Z,23.90
2023-05-10T16:29:29.267Z,23.79
2023-05-10T16:30:27.065Z,23.80
2023-05-10T16:31:27.140Z,23.58
2023-05-10T16:32:27.104Z,23.62
2023-05-10T16:33:27.038Z,23.45
2023-05-10T16:34:27.007Z,22.99
2023-05-10T16:35:26.967Z,22.60
2023-05-10T16:36:27.474Z,22.37
2023-05-10T16:37:27.332Z,22.10
2023-05-10T16:38:26.960Z,21.98
2023-05-10T16:39:26.935Z,21.94
2023-05-10T16:40:27.062Z,21.85
2023-05-10T16:41:26.910Z,21.67
2023-05-10T16:42:26.964Z,21.57
2023-05-10T16:43:26.901Z,21.54
2023-05-10T16:44:26.898Z,21.51
2023-05-10T16:45:26.877Z,21.51
2023-05-10T16:46:26.901Z,21.45
2023-05-10T16:47:27.035Z,21.41
2023-05-10T16:48:26.877Z,21.42
2023-05-10T16:49:27.041Z,21.41
2023-05-10T16:50:26.818Z,21.42
2023-05-10T16:51:26.802Z,21.27
2023-05-10T16:52:26.827Z,21.26